Time;durP1;ratioP1;P1;durP2;ratioP2;P2;SDS_P1;SDS_P2;PMS_P1;PMS_P2;Temp;Humidity;BMP_temperature;BMP_pressure;BME280_temperature;BME280_humidity;BME280_pressure;Samples;Min_cycle;Max_cycle;Signal;HPM_P1;HPM_P2
2022/09/04 00:00:17;;;;;;;2.97;2.17;;;17.10;99.90;;;;;;5036058;28;20017;-71
2022/09/04 00:03:09;;;;;;;2.42;1.85;;;17.10;99.90;;;;;;5036161;28;20022;-72
2022/09/04 00:05:48;;;;;;;5.07;2.08;;;17.10;99.90;;;;;;5035664;28;20036;-72
2022/09/04 00:08:28;;;;;;;;;;;17.00;99.90;;;;;;5036049;28;20025;-72
2022/09/04 00:11:30;;;;;;;2.45;1.40;;;17.00;99.90;;;;;;5035459;28;19919;-72
2022/09/04 00:14:02;;;;;;;6.13;2.92;;;17.00;99.90;;;;;;5031616;28;20498;-72
2022/09/04 00:16:51;;;;;;;7.28;2.10;;;17.00;99.90;;;;;;5035330;28;20461;-72
2022/09/04 00:19:39;;;;;;;2.55;2.25;;;17.00;99.90;;;;;;5035561;28;20061;-72
2022/09/04 00:22:34;;;;;;;4.55;2.05;;;17.00;99.90;;;;;;5035639;28;20018;-72
2022/09/04 00:25:14;;;;;;;4.18;2.00;;;16.90;99.90;;;;;;5033907;28;20022;-72
2022/09/04 00:27:45;;;;;;;3.58;1.90;;;16.90;99.90;;;;;;5017345;28;20025;-72
2022/09/04 00:30:20;;;;;;;6.80;2.13;;;16.90;99.90;;;;;;5017340;28;20482;-72
2022/09/04 00:32:58;;;;;;;3.53;2.20;;;16.90;99.90;;;;;;5035442;28;20108;-72
2022/09/04 00:35:31;;;;;;;6.57;2.20;;;16.90;99.90;;;;;;5017558;28;20080;-72
2022/09/04 00:38:03;;;;;;;3.40;1.70;;;16.90;99.90;;;;;;5017246;28;20018;-72
2022/09/04 00:40:51;;;;;;;3.60;1.95;;;16.80;99.90;;;;;;5035436;28;20030;-72
2022/09/04 00:43:28;;;;;;;3.28;2.28;;;16.80;99.90;;;;;;5035887;28;20056;-72
2022/09/04 00:46:03;;;;;;;4.10;2.25;;;16.80;99.90;;;;;;5035436;28;20053;-72
2022/09/04 00:48:48;;;;;;;3.10;2.03;;;16.80;99.90;;;;;;5035896;28;20466;-73
2022/09/04 00:51:42;;;;;;;2.83;2.15;;;16.70;99.90;;;;;;5035261;28;20025;-72
2022/09/04 00:54:32;;;;;;;2.70;1.90;;;16.70;99.90;;;;;;5035392;28;20033;-72
2022/09/04 00:57:17;;;;;;;5.85;2.47;;;16.70;99.90;;;;;;5035249;28;20464;-72
2022/09/04 01:00:06;;;;;;;5.03;2.80;;;16.80;99.90;;;;;;5035614;28;20028;-72
2022/09/04 01:02:48;;;;;;;4.57;2.50;;;16.70;99.90;;;;;;5036084;28;20045;-72
2022/09/04 01:05:26;;;;;;;3.08;2.58;;;16.60;99.90;;;;;;5035168;28;20152;-72
2022/09/04 01:08:06;;;;;;;6.45;3.30;;;16.60;99.90;;;;;;5035462;28;20029;-73
2022/09/04 01:10:55;;;;;;;5.82;2.70;;;16.60;99.90;;;;;;5017196;28;20033;-73
2022/09/04 01:13:41;;;;;;;5.00;2.35;;;16.60;99.90;;;;;;5017034;28;20057;-72
2022/09/04 01:16:13;;;;;;;4.50;3.03;;;16.50;99.90;;;;;;5034798;28;20030;-73
2022/09/04 01:19:10;;;;;;;5.97;2.78;;;16.50;99.90;;;;;;5016960;28;20026;-72
2022/09/04 01:22:14;;;;;;;3.97;2.30;;;16.50;99.90;;;;;;5034657;28;20562;-72
2022/09/04 01:24:57;;;;;;;4.70;2.88;;;16.90;99.90;;;;;;5034089;28;20030;-72
2022/09/04 01:27:26;;;;;;;5.75;2.92;;;16.50;99.90;;;;;;5016814;28;20032;-73
2022/09/04 01:30:10;;;;;;;5.95;3.10;;;16.40;99.90;;;;;;5034398;28;20059;-72
2022/09/04 01:33:05;;;;;;;7.63;2.92;;;16.40;99.90;;;;;;5016617;28;20124;-72
2022/09/04 01:36:18;;;;;;;4.57;2.83;;;16.40;99.90;;;;;;5016777;28;20479;-72
2022/09/04 01:38:58;;;;;;;4.97;2.42;;;16.40;99.90;;;;;;5016868;28;20486;-72
2022/09/04 01:41:26;;;;;;;5.35;3.60;;;16.30;99.90;;;;;;5034382;28;20426;-72
2022/09/04 01:43:52;;;;;;;;;;;16.30;99.90;;;;;;5034334;28;20021;-73
2022/09/04 01:46:32;;;;;;;8.27;3.50;;;16.30;99.90;;;;;;5034124;28;19940;-73
2022/09/04 01:49:29;;;;;;;10.38;3.83;;;16.20;99.90;;;;;;5034242;28;20386;-73
2022/09/04 01:52:07;;;;;;;5.65;3.42;;;16.20;99.90;;;;;;5034101;28;20037;-72
2022/09/04 01:54:41;;;;;;;5.05;3.22;;;16.20;99.90;;;;;;5033873;28;20483;-72
2022/09/04 01:57:33;;;;;;;5.13;3.38;;;16.20;99.90;;;;;;5034350;28;20374;-72
2022/09/04 02:00:09;;;;;;;4.07;2.72;;;16.40;99.90;;;;;;5033960;28;20033;-72
2022/09/04 02:03:11;;;;;;;4.28;2.83;;;16.10;99.90;;;;;;5033925;28;20026;-72
2022/09/04 02:06:04;;;;;;;8.93;3.95;;;16.10;99.90;;;;;;5033829;28;20060;-73
2022/09/04 02:08:57;;;;;;;6.78;3.38;;;16.10;99.90;;;;;;5033890;28;20033;-72
2022/09/04 02:11:29;;;;;;;6.70;3.70;;;16.10;99.90;;;;;;5033683;28;20041;-72
2022/09/04 02:14:26;;;;;;;3.85;3.38;;;16.10;99.90;;;;;;5033523;28;20024;-73
2022/09/04 02:17:13;;;;;;;8.38;3.90;;;16.00;99.90;;;;;;5034021;28;20034;-73
2022/09/04 02:19:58;;;;;;;6.72;4.20;;;16.00;99.90;;;;;;5033400;28;20041;-72
2022/09/04 02:22:43;;;;;;;8.70;3.85;;;16.00;99.90;;;;;;5015806;28;20022;-72
2022/09/04 02:25:15;;;;;;;6.80;3.50;;;15.90;99.90;;;;;;5033488;28;20072;-73
2022/09/04 02:28:11;;;;;;;7.50;4.25;;;15.90;99.90;;;;;;5015472;28;20071;-72
2022/09/04 02:30:47;;;;;;;9.15;4.38;;;15.90;99.90;;;;;;5015452;28;20026;-72
2022/09/04 02:33:38;;;;;;;5.32;3.80;;;15.90;99.90;;;;;;5033624;28;20021;-72
2022/09/04 02:36:09;;;;;;;5.25;3.75;;;15.90;99.90;;;;;;5015500;28;20489;-73
2022/09/04 02:38:50;;;;;;;8.65;3.90;;;15.90;99.90;;;;;;5015507;28;20021;-72
2022/09/04 02:41:25;;;;;;;4.88;3.85;;;15.80;99.90;;;;;;5033271;28;20037;-72
2022/09/04 02:44:23;;;;;;;5.70;3.95;;;15.80;99.90;;;;;;5015347;28;20082;-71
2022/09/04 02:47:39;;;;;;;5.78;3.58;;;15.80;99.90;;;;;;5018404;28;20041;-72
2022/09/04 02:50:37;;;;;;;5.03;3.70;;;15.80;99.90;;;;;;4990645;28;20039;-72
2022/09/04 02:53:19;;;;;;;8.02;4.43;;;15.80;99.90;;;;;;5033427;28;20026;-72
2022/09/04 02:56:26;;;;;;;5.32;4.25;;;15.80;99.90;;;;;;5032960;28;20108;-72
2022/09/04 02:58:56;;;;;;;8.15;3.67;;;15.70;99.90;;;;;;4995926;28;20033;-72
2022/09/04 03:01:35;;;;;;;8.00;4.72;;;15.70;99.90;;;;;;5033190;28;20025;-72
2022/09/04 03:04:09;;;;;;;;;;;15.70;99.90;;;;;;5033223;28;20403;-73
2022/09/04 03:06:56;;;;;;;6.30;4.00;;;15.60;99.90;;;;;;5033229;28;20354;-72
2022/09/04 03:10:01;;;;;;;7.60;3.90;;;15.60;99.90;;;;;;5032729;28;20159;-72
2022/09/04 03:12:41;;;;;;;7.57;4.22;;;15.70;99.90;;;;;;4967624;28;20042;-72
2022/09/04 03:15:20;;;;;;;11.15;4.68;;;15.70;99.90;;;;;;5033046;28;20035;-73
2022/09/04 03:18:13;;;;;;;8.40;4.10;;;15.70;99.90;;;;;;5015111;28;20063;-71
2022/09/04 03:20:48;;;;;;;12.75;4.95;;;15.70;99.90;;;;;;5032964;28;20087;-72
2022/09/04 03:23:29;;;;;;;7.13;4.18;;;15.60;99.90;;;;;;5032817;28;20483;-72
2022/09/04 03:26:22;;;;;;;7.00;4.30;;;15.60;99.90;;;;;;5015033;28;20478;-72
2022/09/04 03:29:23;;;;;;;6.53;4.00;;;15.60;99.90;;;;;;5015143;28;20053;-72
2022/09/04 03:32:23;;;;;;;8.02;4.43;;;15.60;99.90;;;;;;5015222;28;20026;-72
2022/09/04 03:35:25;;;;;;;8.57;4.72;;;15.60;99.90;;;;;;5032573;28;20025;-72
2022/09/04 03:38:32;;;;;;;6.82;4.72;;;15.60;99.90;;;;;;5032787;28;20119;-72
2022/09/04 03:41:07;;;;;;;7.63;4.70;;;15.70;99.90;;;;;;5033115;28;20083;-72
2022/09/04 03:43:48;;;;;;;7.03;4.32;;;15.60;99.90;;;;;;5033352;28;20398;-73
2022/09/04 03:46:33;;;;;;;6.25;4.07;;;15.70;99.90;;;;;;5015128;28;20021;-72
2022/09/04 03:49:17;;;;;;;8.18;5.10;;;15.70;99.90;;;;;;5033313;28;20463;-72
2022/09/04 03:52:13;;;;;;;4.97;4.10;;;15.60;99.90;;;;;;5032946;28;20407;-72
2022/09/04 03:55:11;;;;;;;8.27;5.03;;;15.60;99.90;;;;;;5032992;28;20095;-73
2022/09/04 03:58:19;;;;;;;7.78;4.57;;;15.60;99.90;;;;;;5032652;28;20036;-73
2022/09/04 04:00:55;;;;;;;5.18;4.20;;;15.60;99.90;;;;;;5036604;28;20018;-73
2022/09/04 04:03:41;;;;;;;7.55;4.50;;;15.60;99.90;;;;;;5036255;28;20029;-72
2022/09/04 04:06:15;;;;;;;5.68;4.18;;;15.50;99.90;;;;;;5036485;28;20044;-72
2022/09/04 04:09:26;;;;;;;7.75;4.70;;;15.60;99.90;;;;;;5018286;28;20103;-72
2022/09/04 04:12:17;;;;;;;7.18;4.40;;;15.50;99.90;;;;;;5018331;28;20021;-73
2022/09/04 04:15:06;;;;;;;8.45;4.93;;;15.50;99.90;;;;;;5034762;28;20064;-72
2022/09/04 04:17:56;;;;;;;7.63;4.70;;;15.50;99.90;;;;;;5036033;28;20025;-73
2022/09/04 04:21:08;;;;;;;7.13;4.68;;;15.50;99.90;;;;;;5036251;28;20025;-71
2022/09/04 04:23:55;;;;;;;8.98;4.75;;;15.50;99.90;;;;;;4965343;28;20583;-71
2022/09/04 04:26:37;;;;;;;8.77;5.50;;;15.40;99.90;;;;;;5036139;28;20064;-71
2022/09/04 04:29:39;;;;;;;8.88;5.40;;;17.10;99.90;;;;;;5036198;28;20036;-71
2022/09/04 04:32:35;;;;;;;7.00;5.50;;;15.50;99.90;;;;;;5017850;28;20486;-73
2022/09/04 04:35:05;;;;;;;10.63;6.22;;;15.50;99.90;;;;;;5035877;28;20021;-73
2022/09/04 04:37:42;;;;;;;10.18;6.80;;;15.60;99.90;;;;;;5017867;28;20115;-73
2022/09/04 04:40:40;;;;;;;10.77;6.82;;;15.60;99.90;;;;;;5035558;28;20376;-74
2022/09/04 04:43:46;;;;;;;12.87;7.00;;;15.60;99.90;;;;;;5017906;28;20398;-74
2022/09/04 04:46:16;;;;;;;12.05;7.18;;;15.70;99.90;;;;;;5035517;28;20409;-74
2022/09/04 04:48:56;;;;;;;10.43;6.68;;;15.70;99.90;;;;;;5035394;28;20025;-74
2022/09/04 04:51:30;;;;;;;11.70;7.60;;;15.70;99.90;;;;;;5035739;28;20487;-74
2022/09/04 04:54:41;;;;;;;19.75;6.97;;;15.70;99.90;;;;;;5035256;28;20567;-74
2022/09/04 04:57:44;;;;;;;11.65;7.47;;;15.70;99.90;;;;;;5011162;28;20136;-73
2022/09/04 05:00:18;;;;;;;13.00;7.50;;;15.70;99.90;;;;;;4991322;28;20037;-74
2022/09/04 05:03:08;;;;;;;12.45;7.53;;;15.70;99.90;;;;;;5017393;28;20025;-73
2022/09/04 05:05:42;;;;;;;13.75;7.32;;;15.70;99.90;;;;;;5035006;28;20013;-73
2022/09/04 05:08:17;;;;;;;10.82;7.07;;;15.70;99.90;;;;;;5017263;28;20022;-74
2022/09/04 05:11:01;;;;;;;12.60;7.90;;;15.70;99.90;;;;;;5025227;23;20052;-71
2022/09/04 05:13:56;;;;;;;12.10;7.82;;;15.70;99.90;;;;;;5017283;28;20050;-72
2022/09/04 05:16:33;;;;;;;15.05;7.75;;;15.70;99.90;;;;;;5034804;28;20033;-71
2022/09/04 05:19:10;;;;;;;12.52;7.88;;;15.70;99.90;;;;;;5017249;28;20079;-71
2022/09/04 05:22:01;;;;;;;16.05;8.15;;;15.70;99.90;;;;;;5035114;28;20022;-72
2022/09/04 05:24:48;;;;;;;13.52;8.38;;;15.70;99.90;;;;;;5034808;28;20520;-73
2022/09/04 05:27:31;;;;;;;11.80;7.63;;;15.70;99.90;;;;;;5016943;28;20033;-72
2022/09/04 05:30:38;;;;;;;17.08;7.82;;;15.70;99.90;;;;;;5034923;28;20029;-73
2022/09/04 05:33:20;;;;;;;12.57;7.05;;;15.80;99.90;;;;;;5034803;28;20026;-72
2022/09/04 05:35:54;;;;;;;13.70;7.45;;;15.80;99.90;;;;;;5016670;28;20029;-71
2022/09/04 05:38:41;;;;;;;12.60;7.90;;;15.80;99.90;;;;;;5034440;28;20029;-72
2022/09/04 05:41:38;;;;;;;11.52;7.07;;;15.80;99.90;;;;;;5016711;28;20449;-72
2022/09/04 05:44:32;;;;;;;11.55;7.38;;;15.90;99.90;;;;;;5034239;28;20026;-73
2022/09/04 05:47:00;;;;;;;11.27;7.75;;;15.90;99.90;;;;;;5034587;28;20032;-72
2022/09/04 05:49:53;;;;;;;12.52;7.68;;;15.90;99.90;;;;;;5016828;28;20120;-72
2022/09/04 05:53:05;;;;;;;11.00;7.53;;;15.90;99.90;;;;;;5034386;28;20042;-72
2022/09/04 05:55:55;;;;;;;12.40;7.40;;;15.90;99.90;;;;;;5027024;28;20048;-72
2022/09/04 05:58:48;;;;;;;10.68;7.72;;;16.00;99.90;;;;;;5034141;28;20017;-72
2022/09/04 06:01:48;;;;;;;13.60;8.00;;;16.00;99.90;;;;;;5016376;28;20029;-72
2022/09/04 06:04:29;;;;;;;11.52;7.70;;;16.10;99.90;;;;;;5034257;28;20047;-72
2022/09/04 06:07:24;;;;;;;11.15;7.03;;;16.20;99.90;;;;;;5034090;28;20132;-72
2022/09/04 06:10:16;;;;;;;12.32;7.60;;;16.30;99.90;;;;;;5034161;28;20033;-73
2022/09/04 06:13:02;;;;;;;10.98;7.20;;;16.40;99.90;;;;;;5034403;28;20442;-73
2022/09/04 06:15:56;;;;;;;11.40;7.00;;;16.50;99.90;;;;;;5033701;28;20030;-72
2022/09/04 06:18:39;;;;;;;13.38;7.75;;;16.60;99.90;;;;;;5034049;28;20024;-72
2022/09/04 06:21:26;;;;;;;14.55;8.07;;;16.70;99.90;;;;;;5033594;28;20022;-72
2022/09/04 06:24:21;;;;;;;12.25;7.75;;;16.80;99.90;;;;;;5033221;28;20074;-72
2022/09/04 06:26:55;;;;;;;15.65;9.15;;;17.00;99.90;;;;;;4999913;28;20506;-72
2022/09/04 06:29:44;;;;;;;11.18;7.00;;;17.10;99.90;;;;;;5033530;28;20025;-73
2022/09/04 06:32:40;;;;;;;13.38;7.95;;;17.30;99.90;;;;;;5033266;28;20433;-72
2022/09/04 06:35:29;;;;;;;14.45;8.90;;;17.50;99.90;;;;;;5033509;28;20056;-72
2022/09/04 06:38:22;;;;;;;14.65;7.72;;;17.50;99.90;;;;;;5034151;28;20025;-72
2022/09/04 06:41:18;;;;;;;13.88;9.07;;;17.60;99.90;;;;;;5033575;28;20053;-72
2022/09/04 06:44:03;;;;;;;12.38;8.38;;;17.70;99.90;;;;;;5033333;28;20025;-71
2022/09/04 06:46:40;;;;;;;14.93;8.95;;;17.80;99.90;;;;;;5033391;28;20030;-72
2022/09/04 06:49:29;;;;;;;15.40;9.10;;;17.80;99.90;;;;;;5015774;28;20164;-71
2022/09/04 06:51:58;;;;;;;11.80;8.10;;;18.00;99.90;;;;;;5015685;28;20091;-72
2022/09/04 06:54:44;;;;;;;13.68;8.88;;;18.10;99.90;;;;;;5033545;28;20116;-71
2022/09/04 06:57:37;;;;;;;15.23;9.73;;;18.10;99.90;;;;;;5033904;28;20528;-72
2022/09/04 07:00:07;;;;;;;14.40;9.32;;;18.20;99.90;;;;;;5033895;28;20021;-74
2022/09/04 07:02:51;;;;;;;17.38;8.45;;;18.40;99.90;;;;;;5033709;28;20029;-75
2022/09/04 07:05:45;;;;;;;15.77;8.85;;;18.50;99.90;;;;;;5015752;28;20108;-74
2022/09/04 07:08:29;;;;;;;16.92;9.63;;;18.60;99.90;;;;;;5033472;28;20033;-75
2022/09/04 07:11:21;;;;;;;12.73;8.63;;;18.70;99.90;;;;;;5033236;28;20119;-75
2022/09/04 07:14:15;;;;;;;14.15;8.60;;;18.80;99.90;;;;;;5033502;28;20418;-75
2022/09/04 07:16:49;;;;;;;11.07;8.35;;;18.90;99.90;;;;;;5033474;28;20544;-76
2022/09/04 07:19:52;;;;;;;13.02;7.15;;;19.00;99.90;;;;;;5015638;28;20079;-76
2022/09/04 07:22:36;;;;;;;14.30;7.00;;;19.20;99.90;;;;;;5033213;28;20030;-76
2022/09/04 07:25:25;;;;;;;12.30;7.82;;;19.40;99.90;;;;;;5033302;28;20029;-75
2022/09/04 07:27:54;;;;;;;15.27;8.80;;;19.70;99.90;;;;;;5033083;28;20104;-75
2022/09/04 07:30:24;;;;;;;12.23;7.10;;;19.80;99.90;;;;;;5033019;28;20056;-74
2022/09/04 07:33:31;;;;;;;10.70;7.40;;;19.90;99.90;;;;;;5033272;28;20076;-74
2022/09/04 07:36:37;;;;;;;12.15;8.35;;;20.00;99.90;;;;;;5037413;28;20029;-74
2022/09/04 07:39:14;;;;;;;12.02;8.35;;;20.20;99.90;;;;;;5035636;28;20038;-75
2022/09/04 07:41:48;;;;;;;14.00;8.40;;;20.30;99.90;;;;;;5037098;28;20021;-75
2022/09/04 07:44:29;;;;;;;17.73;9.02;;;20.50;99.90;;;;;;5036605;28;20030;-75
2022/09/04 07:47:10;;;;;;;10.45;6.97;;;20.60;99.90;;;;;;5036962;28;20029;-75
2022/09/04 07:49:42;;;;;;;12.20;8.30;;;20.60;99.90;;;;;;5036696;28;20022;-73
2022/09/04 07:52:45;;;;;;;14.98;8.52;;;20.70;99.90;;;;;;5037084;28;20112;-74
2022/09/04 07:55:13;;;;;;;11.40;8.07;;;20.80;99.90;;;;;;5036534;28;20029;-73
2022/09/04 07:57:51;;;;;;;12.20;7.85;;;21.00;99.90;;;;;;5036362;28;20021;-73
2022/09/04 08:00:21;;;;;;;18.07;9.33;;;21.20;99.90;;;;;;5036502;28;20040;-73
2022/09/04 08:02:59;;;;;;;13.63;8.10;;;21.20;99.90;;;;;;5036460;28;20450;-73
2022/09/04 08:05:53;;;;;;;15.07;8.60;;;21.30;99.90;;;;;;5036409;28;20021;-74
2022/09/04 08:08:36;;;;;;;16.08;8.38;;;21.50;99.90;;;;;;5036594;28;20025;-72
2022/09/04 08:11:37;;;;;;;13.52;9.27;;;21.50;99.90;;;;;;5036220;28;20065;-74
2022/09/04 08:14:29;;;;;;;13.30;8.07;;;21.60;99.90;;;;;;5021948;28;20034;-74
2022/09/04 08:17:24;;;;;;;15.02;8.52;;;21.70;99.90;;;;;;5005697;28;20033;-75
2022/09/04 08:20:08;;;;;;;12.95;8.23;;;21.80;99.90;;;;;;5036153;28;20125;-74
2022/09/04 08:22:55;;;;;;;16.55;8.93;;;22.00;99.90;;;;;;5018421;28;20026;-74
2022/09/04 08:25:28;;;;;;;11.45;7.50;;;22.10;99.90;;;;;;5036352;28;20478;-74
2022/09/04 08:28:32;;;;;;;14.02;8.95;;;22.20;99.90;;;;;;5035889;28;20031;-74
2022/09/04 08:31:19;;;;;;;14.05;8.02;;;22.30;99.90;;;;;;5018419;28;20044;-74
2022/09/04 08:34:09;;;;;;;12.23;8.07;;;22.60;99.90;;;;;;5018402;28;20028;-74
2022/09/04 08:37:12;;;;;;;15.88;8.02;;;22.70;99.90;;;;;;5018227;28;20029;-74
2022/09/04 08:39:48;;;;;;;12.90;8.57;;;22.90;99.90;;;;;;5036180;28;20428;-74
2022/09/04 08:42:17;;;;;;;16.77;8.68;;;23.10;99.90;;;;;;5035840;28;20029;-73
2022/09/04 08:45:21;;;;;;;15.20;8.90;;;23.10;99.90;;;;;;5034763;28;20473;-74
2022/09/04 08:48:22;;;;;;;14.77;8.85;;;23.10;99.90;;;;;;5017721;28;20032;-74
2022/09/04 08:51:17;;;;;;;15.43;8.52;;;23.20;99.90;;;;;;5035991;28;20394;-74
2022/09/04 08:54:16;;;;;;;18.67;9.48;;;23.30;99.90;;;;;;5035516;28;20478;-74
2022/09/04 08:57:00;;;;;;;16.65;9.68;;;23.50;99.90;;;;;;5017577;28;20072;-74
2022/09/04 08:59:39;;;;;;;16.05;9.20;;;23.60;99.90;;;;;;5035604;28;20017;-74
2022/09/04 09:02:29;;;;;;;16.75;10.40;;;23.70;99.90;;;;;;5035900;28;20021;-74
2022/09/04 09:05:01;;;;;;;20.50;9.40;;;23.80;99.90;;;;;;5017800;28;20479;-72
2022/09/04 09:07:29;;;;;;;23.98;9.50;;;23.80;99.90;;;;;;5035807;28;20458;-73
2022/09/04 09:10:13;;;;;;;13.68;7.38;;;23.80;99.90;;;;;;5017165;28;20037;-72
2022/09/04 09:13:17;;;;;;;13.63;8.52;;;23.90;99.90;;;;;;5035606;28;20049;-73
2022/09/04 09:15:51;;;;;;;13.63;8.57;;;24.00;99.90;;;;;;5017208;28;20034;-73
2022/09/04 09:18:36;;;;;;;11.15;7.32;;;24.10;99.90;;;;;;5035016;28;20037;-73
2022/09/04 09:21:18;;;;;;;13.82;8.90;;;24.20;99.90;;;;;;5035463;28;20029;-73
2022/09/04 09:24:21;;;;;;;14.70;8.68;;;24.30;99.90;;;;;;5017115;28;20390;-73
2022/09/04 09:27:04;;;;;;;15.43;8.50;;;24.40;99.90;;;;;;5034890;28;20030;-74
2022/09/04 09:29:52;;;;;;;12.90;7.32;;;24.50;99.90;;;;;;5034639;28;20055;-73
2022/09/04 09:32:52;;;;;;;11.32;6.88;;;24.60;99.90;;;;;;5017280;28;20446;-73
2022/09/04 09:35:40;;;;;;;11.82;7.80;;;24.80;99.90;;;;;;5034715;28;20469;-72
2022/09/04 09:38:33;;;;;;;11.30;7.45;;;24.90;99.90;;;;;;5035227;28;20029;-72
2022/09/04 09:41:17;;;;;;;11.38;6.85;;;24.90;99.90;;;;;;5034901;28;20021;-73
2022/09/04 09:44:20;;;;;;;13.98;7.05;;;25.00;99.90;;;;;;5034667;28;20021;-72
2022/09/04 09:47:00;;;;;;;11.57;7.32;;;25.30;99.90;;;;;;5034713;28;20029;-73
2022/09/04 09:50:03;;;;;;;9.93;6.28;;;25.50;99.90;;;;;;5034373;28;20053;-72
2022/09/04 09:53:07;;;;;;;10.98;6.40;;;25.60;99.90;;;;;;5034658;28;20043;-73
2022/09/04 09:55:51;;;;;;;9.65;6.68;;;25.60;99.90;;;;;;5034126;28;20026;-72
2022/09/04 09:58:17;;;;;;;8.95;5.30;;;25.70;99.90;;;;;;5034095;28;20486;-73
2022/09/04 10:01:05;;;;;;;7.97;5.00;;;25.80;99.90;;;;;;5034130;28;20163;-73
2022/09/04 10:03:37;;;;;;;9.57;6.03;;;25.80;99.90;;;;;;5034149;28;20049;-73
2022/09/04 10:06:38;;;;;;;9.85;6.32;;;25.90;99.90;;;;;;5034135;28;20033;-73
2022/09/04 10:09:19;;;;;;;10.02;4.72;;;25.80;99.90;;;;;;5034643;28;20017;-73
2022/09/04 10:12:07;;;;;;;13.40;6.18;;;26.00;99.90;;;;;;5033934;28;20422;-72
2022/09/04 10:14:57;;;;;;;7.32;4.90;;;26.20;99.90;;;;;;5033964;28;20048;-72
2022/09/04 10:17:51;;;;;;;6.25;4.20;;;26.30;99.90;;;;;;5034504;28;20057;-72
2022/09/04 10:20:49;;;;;;;13.65;4.72;;;26.30;99.90;;;;;;5016100;28;20025;-72
2022/09/04 10:23:31;;;;;;;6.40;4.03;;;26.40;99.90;;;;;;5002110;28;20038;-73
2022/09/04 10:26:02;;;;;;;8.98;3.88;;;26.50;99.90;;;;;;5016171;28;20509;-72
2022/09/04 10:28:28;;;;;;;5.00;3.15;;;26.60;99.80;;;;;;5033686;28;20029;-72
2022/09/04 10:31:08;;;;;;;7.72;4.00;;;26.80;99.70;;;;;;5033946;28;20033;-74
2022/09/04 10:34:09;;;;;;;3.65;2.30;;;26.80;99.30;;;;;;5034202;28;20060;-72
2022/09/04 10:36:55;;;;;;;5.20;2.63;;;26.90;98.80;;;;;;5015766;28;20494;-74
2022/09/04 10:43:33;;;;;;;3.40;2.15;;;27.20;97.80;;;;;;5034274;28;20083;-72
2022/09/04 10:46:23;;;;;;;3.42;2.00;;;27.40;96.90;;;;;;4953413;29;20159;-73
2022/09/04 10:49:26;;;;;;;4.75;2.15;;;27.40;96.20;;;;;;4953444;29;20083;-73
2022/09/04 10:52:16;;;;;;;6.00;2.65;;;27.60;96.10;;;;;;5034059;28;20056;-72
2022/09/04 10:54:56;;;;;;;4.00;2.60;;;27.60;95.90;;;;;;5033640;28;20021;-73
2022/09/04 10:57:36;;;;;;;2.03;1.45;;;27.80;95.20;;;;;;5033280;28;20025;-73
2022/09/04 11:00:10;;;;;;;4.40;1.98;;;27.90;95.40;;;;;;5033963;28;20100;-73
2022/09/04 11:03:02;;;;;;;4.43;2.72;;;28.20;95.30;;;;;;5033919;28;20025;-73
2022/09/04 11:06:25;;;;;;;3.20;2.28;;;28.30;93.70;;;;;;5034110;28;20026;-72
2022/09/04 11:09:12;;;;;;;2.95;1.85;;;28.50;94.10;;;;;;4954473;28;20138;-73
2022/09/04 11:11:55;;;;;;;1.90;1.25;;;28.90;93.10;;;;;;5033742;28;20057;-73
2022/09/04 11:14:49;;;;;;;4.00;1.63;;;29.00;92.70;;;;;;5037190;28;20030;-72
2022/09/04 11:17:35;;;;;;;1.45;0.80;;;29.20;91.80;;;;;;5019460;28;20379;-72
2022/09/04 11:20:12;;;;;;;2.63;0.70;;;29.30;92.10;;;;;;5037328;28;20096;-72
2022/09/04 11:23:19;;;;;;;3.97;1.40;;;29.60;92.00;;;;;;5036969;28;20038;-72
2022/09/04 11:26:06;;;;;;;1.30;1.02;;;29.60;88.40;;;;;;5036516;28;20776;-73
2022/09/04 11:28:50;;;;;;;3.58;1.05;;;29.80;88.00;;;;;;5037453;28;20382;-73
2022/09/04 11:31:38;;;;;;;1.15;0.95;;;29.80;89.10;;;;;;5037646;28;20021;-72
2022/09/04 11:34:38;;;;;;;1.45;1.15;;;29.80;88.00;;;;;;5036804;28;20018;-73
2022/09/04 11:37:46;;;;;;;3.72;0.93;;;30.00;86.90;;;;;;5036950;28;20029;-72
2022/09/04 11:40:45;;;;;;;2.17;0.60;;;30.10;84.80;;;;;;5008557;28;20036;-72
2022/09/04 11:43:12;;;;;;;1.92;0.30;;;30.20;83.60;;;;;;5037135;28;20363;-73
2022/09/04 11:45:47;;;;;;;2.10;0.45;;;30.10;83.60;;;;;;5036543;28;20068;-72
2022/09/04 11:48:36;;;;;;;1.05;0.30;;;29.90;84.20;;;;;;5037188;28;20441;-73
2022/09/04 11:51:33;;;;;;;1.35;0.20;;;29.60;83.40;;;;;;5018999;28;20140;-73
2022/09/04 11:54:13;;;;;;;3.53;0.10;;;29.50;85.30;;;;;;5036955;28;20030;-73
2022/09/04 11:57:09;;;;;;;1.88;0.50;;;29.50;86.10;;;;;;5036592;28;20029;-73
2022/09/04 11:59:59;;;;;;;1.05;0.40;;;29.30;83.20;;;;;;5036497;28;20045;-72
2022/09/04 12:02:49;;;;;;;1.67;0.52;;;29.00;84.30;;;;;;5037177;28;20025;-72
2022/09/04 12:05:40;;;;;;;1.48;0.40;;;28.70;85.00;;;;;;5018881;28;20026;-73
2022/09/04 12:08:44;;;;;;;1.52;0.50;;;28.40;85.70;;;;;;5036530;28;20097;-72
2022/09/04 12:11:33;;;;;;;;;;;;;;;;;;;;;
2022/09/04 12:14:18;;;;;;;0.65;0.17;;;28.30;86.60;;;;;;5035398;28;20020;-72
2022/09/04 12:17:14;;;;;;;1.30;0.20;;;28.50;86.10;;;;;;5034928;28;20494;-73
2022/09/04 12:19:51;;;;;;;0.85;0.30;;;28.80;86.50;;;;;;5034094;28;20140;-72
2022/09/04 12:22:30;;;;;;;1.65;0.80;;;29.30;82.70;;;;;;5018025;28;20505;-72
2022/09/04 12:25:10;;;;;;;0.85;0.10;;;29.50;84.10;;;;;;5036149;28;20486;-72
2022/09/04 12:27:41;;;;;;;1.45;0.43;;;29.80;82.10;;;;;;5036269;28;20479;-72
2022/09/04 12:30:38;;;;;;;0.52;0.05;;;29.90;81.30;;;;;;5018108;28;20074;-72
2022/09/04 12:33:41;;;;;;;1.27;0.00;;;30.20;80.70;;;;;;5035907;28;20116;-72
2022/09/04 12:36:13;;;;;;;1.45;0.10;;;30.30;78.10;;;;;;5035759;28;20073;-72
2022/09/04 12:39:04;;;;;;;1.65;0.30;;;30.40;79.60;;;;;;5035752;28;20076;-72
2022/09/04 12:42:07;;;;;;;1.70;0.30;;;30.60;78.80;;;;;;5035961;28;20478;-72
2022/09/04 12:44:33;;;;;;;1.70;0.20;;;30.80;76.20;;;;;;5035552;28;20025;-73
2022/09/04 12:47:04;;;;;;;1.15;0.30;;;30.70;75.20;;;;;;5017893;28;20029;-73
2022/09/04 12:49:57;;;;;;;1.38;0.10;;;30.40;75.10;;;;;;5036167;28;20030;-73
2022/09/04 12:52:53;;;;;;;2.55;0.15;;;30.20;77.20;;;;;;5036681;28;20029;-72
2022/09/04 12:55:30;;;;;;;1.58;0.10;;;30.30;76.30;;;;;;5035437;28;20478;-73
2022/09/04 12:58:05;;;;;;;2.90;0.10;;;30.60;74.80;;;;;;5035640;28;20029;-73
2022/09/04 13:00:39;;;;;;;2.72;0.10;;;30.70;73.50;;;;;;5035407;28;20036;-73
2022/09/04 13:03:24;;;;;;;1.23;0.20;;;30.80;73.40;;;;;;5017534;28;20021;-73
2022/09/04 13:06:33;;;;;;;0.57;0.05;;;30.90;73.50;;;;;;5035225;28;20026;-72
2022/09/04 13:09:20;;;;;;;1.98;0.10;;;30.90;71.30;;;;;;5035148;28;20025;-71
2022/09/04 13:12:10;;;;;;;3.08;0.20;;;30.40;72.70;;;;;;5035467;28;20448;-71
2022/09/04 13:14:50;;;;;;;2.47;0.30;;;30.10;73.60;;;;;;5035051;28;20029;-71
2022/09/04 13:17:24;;;;;;;0.73;0.10;;;29.90;74.50;;;;;;5035045;28;20109;-72
2022/09/04 13:20:17;;;;;;;15.13;0.57;;;29.80;75.60;;;;;;5035504;28;20374;-72
2022/09/04 13:23:08;;;;;;;1.25;0.10;;;29.90;76.30;;;;;;5017142;28;20021;-72
2022/09/04 13:25:58;;;;;;;3.50;0.20;;;30.30;76.60;;;;;;5017085;28;20434;-73
2022/09/04 13:28:44;;;;;;;2.00;0.10;;;30.80;74.60;;;;;;5034929;28;20559;-73
2022/09/04 13:31:18;;;;;;;0.68;0.10;;;31.00;73.20;;;;;;5034452;28;20107;-73
2022/09/04 13:34:27;;;;;;;0.52;0.00;;;31.20;71.60;;;;;;5034604;28;20490;-72
2022/09/04 13:37:23;;;;;;;1.10;0.20;;;31.00;70.80;;;;;;5034625;28;20095;-72
2022/09/04 13:40:15;;;;;;;0.20;0.05;;;31.00;69.80;;;;;;5034752;28;20387;-72
2022/09/04 13:42:53;;;;;;;2.85;0.63;;;31.10;69.30;;;;;;5034807;28;20018;-73
2022/09/04 13:45:31;;;;;;;3.75;0.10;;;30.90;70.10;;;;;;5016633;28;20121;-74
2022/09/04 13:48:05;;;;;;;1.30;0.15;;;30.90;71.30;;;;;;5034601;28;20487;-73
2022/09/04 13:50:40;;;;;;;6.25;0.40;;;30.90;70.50;;;;;;5034652;28;20471;-73
2022/09/04 13:53:15;;;;;;;1.10;0.13;;;30.90;70.80;;;;;;5016881;28;20482;-72
2022/09/04 13:55:46;;;;;;;0.70;0.10;;;30.70;70.60;;;;;;5034364;28;20437;-72
2022/09/04 13:58:19;;;;;;;1.02;0.38;;;30.70;68.60;;;;;;5034201;28;20025;-73
2022/09/04 14:00:53;;;;;;;3.75;0.05;;;30.70;71.00;;;;;;5034350;28;20383;-72
2022/09/04 14:03:48;;;;;;;0.52;0.08;;;30.80;69.80;;;;;;5034244;28;20104;-73
2022/09/04 14:06:16;;;;;;;2.28;0.28;;;31.00;69.10;;;;;;5034186;28;20025;-73
2022/09/04 14:08:45;;;;;;;1.38;0.20;;;31.00;70.00;;;;;;5034204;28;20087;-72
2022/09/04 14:11:29;;;;;;;1.95;0.10;;;31.20;69.00;;;;;;5033930;28;20040;-72
2022/09/04 14:14:09;;;;;;;3.30;0.10;;;31.40;69.90;;;;;;5034275;28;20064;-73
2022/09/04 14:16:37;;;;;;;1.73;0.25;;;31.20;68.60;;;;;;5016205;28;20112;-72
2022/09/04 14:19:35;;;;;;;0.28;0.00;;;31.10;68.10;;;;;;5016249;28;20071;-73
2022/09/04 14:22:04;;;;;;;1.60;0.10;;;31.20;68.90;;;;;;4996792;28;20033;-73
2022/09/04 14:25:03;;;;;;;1.35;0.00;;;31.40;66.80;;;;;;5034199;28;20494;-72
2022/09/04 14:27:43;;;;;;;0.32;0.10;;;31.40;67.00;;;;;;5033979;28;20029;-73